sensor_id;sensor_type;location;lat;lon;timestamp;P1;durP1;ratioP1;P2;durP2;ratioP2
12635;SDS011;6383;50.830;7.210;2023-03-18T00:01:09;8.60;;;3.63;;
12635;SDS011;6383;50.830;7.210;2023-03-18T00:03:37;7.75;;;4.10;;
12635;SDS011;6383;50.830;7.210;2023-03-18T00:06:07;10.07;;;4.30;;
12635;SDS011;6383;50.830;7.210;2023-03-18T00:08:37;7.03;;;4.10;;
12635;SDS011;6383;50.830;7.210;2023-03-18T00:11:08;12.85;;;4.05;;
12635;SDS011;6383;50.830;7.210;2023-03-18T00:13:38;9.13;;;3.60;;
12635;SDS011;6383;50.830;7.210;2023-03-18T00:16:09;6.40;;;3.72;;
12635;SDS011;6383;50.830;7.210;2023-03-18T00:18:37;9.85;;;3.65;;
12635;SDS011;6383;50.830;7.210;2023-03-18T00:21:08;14.45;;;4.93;;
12635;SDS011;6383;50.830;7.210;2023-03-18T00:23:38;10.80;;;4.35;;
12635;SDS011;6383;50.830;7.210;2023-03-18T00:26:08;10.70;;;4.20;;
12635;SDS011;6383;50.830;7.210;2023-03-18T00:28:38;8.65;;;4.25;;
12635;SDS011;6383;50.830;7.210;2023-03-18T00:31:08;8.23;;;4.45;;
12635;SDS011;6383;50.830;7.210;2023-03-18T00:33:39;8.02;;;4.03;;
12635;SDS011;6383;50.830;7.210;2023-03-18T00:36:10;10.70;;;4.38;;
12635;SDS011;6383;50.830;7.210;2023-03-18T00:38:42;9.52;;;4.15;;
12635;SDS011;6383;50.830;7.210;2023-03-18T00:41:12;12.82;;;4.45;;
12635;SDS011;6383;50.830;7.210;2023-03-18T00:43:43;11.18;;;4.22;;
12635;SDS011;6383;50.830;7.210;2023-03-18T00:46:19;12.30;;;4.45;;
12635;SDS011;6383;50.830;7.210;2023-03-18T00:48:51;10.80;;;4.88;;
12635;SDS011;6383;50.830;7.210;2023-03-18T00:51:20;11.35;;;4.32;;
12635;SDS011;6383;50.830;7.210;2023-03-18T00:53:54;8.05;;;4.25;;
12635;SDS011;6383;50.830;7.210;2023-03-18T00:56:25;9.25;;;4.68;;
12635;SDS011;6383;50.830;7.210;2023-03-18T00:58:55;10.43;;;4.35;;
12635;SDS011;6383;50.830;7.210;2023-03-18T01:01:25;13.75;;;5.00;;
12635;SDS011;6383;50.830;7.210;2023-03-18T01:03:55;9.05;;;5.07;;
12635;SDS011;6383;50.830;7.210;2023-03-18T01:06:24;8.85;;;4.72;;
12635;SDS011;6383;50.830;7.210;2023-03-18T01:08:56;6.57;;;4.22;;
12635;SDS011;6383;50.830;7.210;2023-03-18T01:11:24;12.32;;;5.28;;
12635;SDS011;6383;50.830;7.210;2023-03-18T01:13:52;12.52;;;5.10;;
12635;SDS011;6383;50.830;7.210;2023-03-18T01:16:22;13.23;;;5.78;;
12635;SDS011;6383;50.830;7.210;2023-03-18T01:18:51;9.95;;;5.25;;
12635;SDS011;6383;50.830;7.210;2023-03-18T01:21:21;12.27;;;6.05;;
12635;SDS011;6383;50.830;7.210;2023-03-18T01:23:50;11.25;;;5.68;;
12635;SDS011;6383;50.830;7.210;2023-03-18T01:26:19;8.07;;;5.28;;
12635;SDS011;6383;50.830;7.210;2023-03-18T01:28:49;10.70;;;5.35;;
12635;SDS011;6383;50.830;7.210;2023-03-18T01:31:18;9.27;;;5.43;;
12635;SDS011;6383;50.830;7.210;2023-03-18T01:33:47;9.43;;;5.55;;
12635;SDS011;6383;50.830;7.210;2023-03-18T01:36:16;11.57;;;6.20;;
12635;SDS011;6383;50.830;7.210;2023-03-18T01:38:45;12.27;;;6.15;;
12635;SDS011;6383;50.830;7.210;2023-03-18T01:41:13;11.88;;;6.55;;
12635;SDS011;6383;50.830;7.210;2023-03-18T01:43:45;10.90;;;5.43;;
12635;SDS011;6383;50.830;7.210;2023-03-18T01:46:33;9.30;;;6.10;;
12635;SDS011;6383;50.830;7.210;2023-03-18T01:49:05;11.02;;;6.30;;
12635;SDS011;6383;50.830;7.210;2023-03-18T01:51:39;12.30;;;7.82;;
12635;SDS011;6383;50.830;7.210;2023-03-18T01:54:09;10.35;;;6.55;;
12635;SDS011;6383;50.830;7.210;2023-03-18T01:56:39;13.88;;;7.60;;
12635;SDS011;6383;50.830;7.210;2023-03-18T01:59:10;11.25;;;6.82;;
12635;SDS011;6383;50.830;7.210;2023-03-18T02:01:41;11.85;;;7.10;;
12635;SDS011;6383;50.830;7.210;2023-03-18T02:04:13;12.47;;;7.50;;
12635;SDS011;6383;50.830;7.210;2023-03-18T02:06:41;11.05;;;6.93;;
12635;SDS011;6383;50.830;7.210;2023-03-18T02:09:10;10.50;;;6.55;;
12635;SDS011;6383;50.830;7.210;2023-03-18T02:11:41;12.43;;;7.10;;
12635;SDS011;6383;50.830;7.210;2023-03-18T02:14:13;15.02;;;7.57;;
12635;SDS011;6383;50.830;7.210;2023-03-18T02:16:42;10.88;;;6.25;;
12635;SDS011;6383;50.830;7.210;2023-03-18T02:19:17;16.83;;;7.90;;
12635;SDS011;6383;50.830;7.210;2023-03-18T02:21:54;11.52;;;6.57;;
12635;SDS011;6383;50.830;7.210;2023-03-18T02:24:32;12.02;;;7.18;;
12635;SDS011;6383;50.830;7.210;2023-03-18T02:27:14;13.85;;;6.95;;
12635;SDS011;6383;50.830;7.210;2023-03-18T02:29:43;15.52;;;8.15;;
12635;SDS011;6383;50.830;7.210;2023-03-18T02:32:13;17.05;;;7.22;;
12635;SDS011;6383;50.830;7.210;2023-03-18T02:34:43;19.02;;;8.48;;
12635;SDS011;6383;50.830;7.210;2023-03-18T02:37:13;11.10;;;7.47;;
12635;SDS011;6383;50.830;7.210;2023-03-18T02:39:41;16.42;;;7.47;;
12635;SDS011;6383;50.830;7.210;2023-03-18T02:42:11;12.75;;;7.68;;
12635;SDS011;6383;50.830;7.210;2023-03-18T02:44:42;11.07;;;6.80;;
12635;SDS011;6383;50.830;7.210;2023-03-18T02:47:13;15.93;;;7.18;;
12635;SDS011;6383;50.830;7.210;2023-03-18T02:49:46;10.23;;;7.15;;
12635;SDS011;6383;50.830;7.210;2023-03-18T02:52:13;13.35;;;7.63;;
12635;SDS011;6383;50.830;7.210;2023-03-18T02:54:41;11.05;;;6.93;;
12635;SDS011;6383;50.830;7.210;2023-03-18T02:57:10;15.13;;;6.85;;
12635;SDS011;6383;50.830;7.210;2023-03-18T02:59:39;11.60;;;6.68;;
12635;SDS011;6383;50.830;7.210;2023-03-18T03:02:07;11.82;;;7.60;;
12635;SDS011;6383;50.830;7.210;2023-03-18T03:04:35;10.68;;;6.95;;
12635;SDS011;6383;50.830;7.210;2023-03-18T03:07:04;11.75;;;7.10;;
12635;SDS011;6383;50.830;7.210;2023-03-18T03:09:32;14.23;;;7.00;;
12635;SDS011;6383;50.830;7.210;2023-03-18T03:12:01;13.02;;;6.82;;
12635;SDS011;6383;50.830;7.210;2023-03-18T03:14:29;15.48;;;8.15;;
12635;SDS011;6383;50.830;7.210;2023-03-18T03:16:58;18.25;;;8.13;;
12635;SDS011;6383;50.830;7.210;2023-03-18T03:19:26;15.15;;;7.35;;
12635;SDS011;6383;50.830;7.210;2023-03-18T03:21:53;14.38;;;7.30;;
12635;SDS011;6383;50.830;7.210;2023-03-18T03:24:22;11.70;;;7.15;;
12635;SDS011;6383;50.830;7.210;2023-03-18T03:26:51;9.55;;;6.68;;
12635;SDS011;6383;50.830;7.210;2023-03-18T03:29:20;13.50;;;6.85;;
12635;SDS011;6383;50.830;7.210;2023-03-18T03:31:49;10.52;;;6.82;;
12635;SDS011;6383;50.830;7.210;2023-03-18T03:34:17;11.57;;;7.75;;
12635;SDS011;6383;50.830;7.210;2023-03-18T03:36:46;10.05;;;6.85;;
12635;SDS011;6383;50.830;7.210;2023-03-18T03:39:15;10.63;;;6.63;;
12635;SDS011;6383;50.830;7.210;2023-03-18T03:41:44;8.13;;;6.47;;
12635;SDS011;6383;50.830;7.210;2023-03-18T03:44:12;10.57;;;6.85;;
12635;SDS011;6383;50.830;7.210;2023-03-18T03:46:40;7.72;;;6.60;;
12635;SDS011;6383;50.830;7.210;2023-03-18T03:49:08;14.88;;;7.32;;
12635;SDS011;6383;50.830;7.210;2023-03-18T03:51:38;12.50;;;7.30;;
12635;SDS011;6383;50.830;7.210;2023-03-18T03:54:09;11.25;;;5.82;;
12635;SDS011;6383;50.830;7.210;2023-03-18T03:56:39;19.80;;;7.90;;
12635;SDS011;6383;50.830;7.210;2023-03-18T03:59:08;11.27;;;6.78;;
12635;SDS011;6383;50.830;7.210;2023-03-18T04:01:36;11.70;;;7.25;;
12635;SDS011;6383;50.830;7.210;2023-03-18T04:04:04;20.25;;;6.78;;
12635;SDS011;6383;50.830;7.210;2023-03-18T04:06:32;10.65;;;6.78;;
12635;SDS011;6383;50.830;7.210;2023-03-18T04:09:02;7.50;;;6.10;;
12635;SDS011;6383;50.830;7.210;2023-03-18T04:11:33;14.77;;;7.18;;
12635;SDS011;6383;50.830;7.210;2023-03-18T04:14:01;12.68;;;6.20;;
12635;SDS011;6383;50.830;7.210;2023-03-18T04:16:30;10.45;;;6.75;;
12635;SDS011;6383;50.830;7.210;2023-03-18T04:19:00;12.88;;;7.65;;
12635;SDS011;6383;50.830;7.210;2023-03-18T04:21:28;8.00;;;6.03;;
12635;SDS011;6383;50.830;7.210;2023-03-18T04:23:57;13.60;;;7.60;;
12635;SDS011;6383;50.830;7.210;2023-03-18T04:26:26;12.00;;;7.57;;
12635;SDS011;6383;50.830;7.210;2023-03-18T04:28:55;12.23;;;7.38;;
12635;SDS011;6383;50.830;7.210;2023-03-18T04:31:24;10.73;;;7.10;;
12635;SDS011;6383;50.830;7.210;2023-03-18T04:33:53;8.02;;;6.53;;
12635;SDS011;6383;50.830;7.210;2023-03-18T04:36:21;10.30;;;6.72;;
12635;SDS011;6383;50.830;7.210;2023-03-18T04:38:50;11.07;;;7.18;;
12635;SDS011;6383;50.830;7.210;2023-03-18T04:41:17;11.32;;;6.32;;
12635;SDS011;6383;50.830;7.210;2023-03-18T04:43:46;9.70;;;6.90;;
12635;SDS011;6383;50.830;7.210;2023-03-18T04:46:16;13.93;;;8.20;;
12635;SDS011;6383;50.830;7.210;2023-03-18T04:48:43;9.82;;;7.43;;
12635;SDS011;6383;50.830;7.210;2023-03-18T04:51:11;13.00;;;7.00;;
12635;SDS011;6383;50.830;7.210;2023-03-18T04:53:40;9.73;;;5.85;;
12635;SDS011;6383;50.830;7.210;2023-03-18T04:56:09;8.10;;;6.10;;
12635;SDS011;6383;50.830;7.210;2023-03-18T04:58:37;10.88;;;5.88;;
12635;SDS011;6383;50.830;7.210;2023-03-18T05:01:06;11.50;;;6.50;;
12635;SDS011;6383;50.830;7.210;2023-03-18T05:03:36;8.88;;;6.93;;
12635;SDS011;6383;50.830;7.210;2023-03-18T05:06:06;9.73;;;6.30;;
12635;SDS011;6383;50.830;7.210;2023-03-18T05:08:35;8.75;;;6.00;;
12635;SDS011;6383;50.830;7.210;2023-03-18T05:11:03;13.68;;;6.65;;
12635;SDS011;6383;50.830;7.210;2023-03-18T05:13:30;9.15;;;6.07;;
12635;SDS011;6383;50.830;7.210;2023-03-18T05:15:59;8.93;;;6.13;;
12635;SDS011;6383;50.830;7.210;2023-03-18T05:18:27;10.05;;;6.30;;
12635;SDS011;6383;50.830;7.210;2023-03-18T05:20:57;7.45;;;5.57;;
12635;SDS011;6383;50.830;7.210;2023-03-18T05:23:24;8.70;;;5.72;;
12635;SDS011;6383;50.830;7.210;2023-03-18T05:25:55;8.43;;;5.50;;
12635;SDS011;6383;50.830;7.210;2023-03-18T05:28:22;13.50;;;5.50;;
12635;SDS011;6383;50.830;7.210;2023-03-18T05:30:50;7.75;;;5.35;;
12635;SDS011;6383;50.830;7.210;2023-03-18T05:33:19;7.15;;;5.65;;
12635;SDS011;6383;50.830;7.210;2023-03-18T05:35:47;10.50;;;5.13;;
12635;SDS011;6383;50.830;7.210;2023-03-18T05:38:17;8.70;;;5.38;;
12635;SDS011;6383;50.830;7.210;2023-03-18T05:40:46;9.63;;;5.00;;
12635;SDS011;6383;50.830;7.210;2023-03-18T05:43:15;12.63;;;5.75;;
12635;SDS011;6383;50.830;7.210;2023-03-18T05:45:43;8.85;;;5.30;;
12635;SDS011;6383;50.830;7.210;2023-03-18T05:48:11;8.32;;;4.32;;
12635;SDS011;6383;50.830;7.210;2023-03-18T05:50:41;9.30;;;4.88;;
12635;SDS011;6383;50.830;7.210;2023-03-18T05:53:09;9.68;;;4.97;;
12635;SDS011;6383;50.830;7.210;2023-03-18T05:55:40;10.23;;;5.63;;
12635;SDS011;6383;50.830;7.210;2023-03-18T05:58:09;7.10;;;4.60;;
12635;SDS011;6383;50.830;7.210;2023-03-18T06:00:37;7.85;;;4.75;;
12635;SDS011;6383;50.830;7.210;2023-03-18T06:03:06;9.27;;;4.90;;
12635;SDS011;6383;50.830;7.210;2023-03-18T06:05:34;7.55;;;4.63;;
12635;SDS011;6383;50.830;7.210;2023-03-18T06:08:03;9.50;;;4.45;;
12635;SDS011;6383;50.830;7.210;2023-03-18T06:10:31;9.07;;;5.03;;
12635;SDS011;6383;50.830;7.210;2023-03-18T06:13:01;10.55;;;4.60;;
12635;SDS011;6383;50.830;7.210;2023-03-18T06:15:29;7.13;;;4.15;;
12635;SDS011;6383;50.830;7.210;2023-03-18T06:17:58;10.23;;;5.18;;
12635;SDS011;6383;50.830;7.210;2023-03-18T06:20:26;8.95;;;5.80;;
12635;SDS011;6383;50.830;7.210;2023-03-18T06:22:55;6.10;;;4.20;;
12635;SDS011;6383;50.830;7.210;2023-03-18T06:25:22;6.38;;;5.15;;
12635;SDS011;6383;50.830;7.210;2023-03-18T06:27:51;7.07;;;4.85;;
12635;SDS011;6383;50.830;7.210;2023-03-18T06:30:21;8.82;;;5.90;;
12635;SDS011;6383;50.830;7.210;2023-03-18T06:32:49;9.63;;;5.22;;
12635;SDS011;6383;50.830;7.210;2023-03-18T06:35:17;10.15;;;4.70;;
12635;SDS011;6383;50.830;7.210;2023-03-18T06:37:46;7.53;;;4.05;;
12635;SDS011;6383;50.830;7.210;2023-03-18T06:40:16;8.43;;;4.30;;
12635;SDS011;6383;50.830;7.210;2023-03-18T06:42:43;11.38;;;5.07;;
12635;SDS011;6383;50.830;7.210;2023-03-18T06:45:11;7.93;;;4.40;;
12635;SDS011;6383;50.830;7.210;2023-03-18T06:47:43;10.15;;;4.68;;
12635;SDS011;6383;50.830;7.210;2023-03-18T06:50:11;10.52;;;4.68;;
12635;SDS011;6383;50.830;7.210;2023-03-18T06:52:41;8.00;;;4.20;;
12635;SDS011;6383;50.830;7.210;2023-03-18T06:55:09;7.72;;;4.82;;
12635;SDS011;6383;50.830;7.210;2023-03-18T06:57:38;6.15;;;4.55;;
12635;SDS011;6383;50.830;7.210;2023-03-18T07:00:08;8.40;;;4.60;;
12635;SDS011;6383;50.830;7.210;2023-03-18T07:02:38;9.40;;;3.97;;
12635;SDS011;6383;50.830;7.210;2023-03-18T07:05:08;10.90;;;4.38;;
12635;SDS011;6383;50.830;7.210;2023-03-18T07:07:39;10.35;;;3.95;;
12635;SDS011;6383;50.830;7.210;2023-03-18T07:10:09;7.10;;;4.72;;
12635;SDS011;6383;50.830;7.210;2023-03-18T07:12:44;8.07;;;4.05;;
12635;SDS011;6383;50.830;7.210;2023-03-18T07:15:14;5.53;;;4.30;;
12635;SDS011;6383;50.830;7.210;2023-03-18T07:17:43;7.88;;;4.53;;
12635;SDS011;6383;50.830;7.210;2023-03-18T07:20:14;7.07;;;3.63;;
12635;SDS011;6383;50.830;7.210;2023-03-18T07:22:44;6.82;;;3.95;;
12635;SDS011;6383;50.830;7.210;2023-03-18T07:25:13;9.65;;;4.25;;
12635;SDS011;6383;50.830;7.210;2023-03-18T07:27:43;9.15;;;5.30;;
12635;SDS011;6383;50.830;7.210;2023-03-18T07:30:13;14.43;;;5.85;;
12635;SDS011;6383;50.830;7.210;2023-03-18T07:32:43;11.65;;;5.20;;
12635;SDS011;6383;50.830;7.210;2023-03-18T07:35:14;7.85;;;4.72;;
12635;SDS011;6383;50.830;7.210;2023-03-18T07:37:44;7.57;;;5.07;;
12635;SDS011;6383;50.830;7.210;2023-03-18T07:40:11;12.35;;;3.83;;
12635;SDS011;6383;50.830;7.210;2023-03-18T07:42:41;10.60;;;3.95;;
12635;SDS011;6383;50.830;7.210;2023-03-18T07:45:10;6.68;;;3.30;;
12635;SDS011;6383;50.830;7.210;2023-03-18T07:47:39;8.18;;;4.22;;
12635;SDS011;6383;50.830;7.210;2023-03-18T07:50:07;5.03;;;3.45;;
12635;SDS011;6383;50.830;7.210;2023-03-18T07:52:38;6.95;;;3.67;;
12635;SDS011;6383;50.830;7.210;2023-03-18T07:55:08;5.05;;;3.10;;
12635;SDS011;6383;50.830;7.210;2023-03-18T07:57:38;4.15;;;3.30;;
12635;SDS011;6383;50.830;7.210;2023-03-18T08:00:07;7.55;;;3.47;;
12635;SDS011;6383;50.830;7.210;2023-03-18T08:02:37;7.88;;;3.53;;
12635;SDS011;6383;50.830;7.210;2023-03-18T08:05:06;6.20;;;3.30;;
12635;SDS011;6383;50.830;7.210;2023-03-18T08:07:34;7.70;;;3.25;;
12635;SDS011;6383;50.830;7.210;2023-03-18T08:10:04;6.22;;;3.10;;
12635;SDS011;6383;50.830;7.210;2023-03-18T08:12:34;5.63;;;2.78;;
12635;SDS011;6383;50.830;7.210;2023-03-18T08:15:04;6.43;;;3.50;;
12635;SDS011;6383;50.830;7.210;2023-03-18T08:17:34;4.50;;;3.08;;
12635;SDS011;6383;50.830;7.210;2023-03-18T08:20:01;4.97;;;2.85;;
12635;SDS011;6383;50.830;7.210;2023-03-18T08:22:30;9.25;;;2.88;;
12635;SDS011;6383;50.830;7.210;2023-03-18T08:24:59;5.78;;;2.70;;
12635;SDS011;6383;50.830;7.210;2023-03-18T08:27:30;5.35;;;3.05;;
12635;SDS011;6383;50.830;7.210;2023-03-18T08:29:58;7.93;;;3.25;;
12635;SDS011;6383;50.830;7.210;2023-03-18T08:32:26;6.80;;;2.78;;
12635;SDS011;6383;50.830;7.210;2023-03-18T08:34:55;5.45;;;3.10;;
12635;SDS011;6383;50.830;7.210;2023-03-18T08:37:24;5.38;;;2.92;;
12635;SDS011;6383;50.830;7.210;2023-03-18T08:39:53;4.05;;;2.95;;
12635;SDS011;6383;50.830;7.210;2023-03-18T08:42:21;5.13;;;3.08;;
12635;SDS011;6383;50.830;7.210;2023-03-18T08:44:51;6.85;;;3.38;;
12635;SDS011;6383;50.830;7.210;2023-03-18T08:47:20;3.70;;;2.50;;
12635;SDS011;6383;50.830;7.210;2023-03-18T08:49:51;3.40;;;2.63;;
12635;SDS011;6383;50.830;7.210;2023-03-18T08:52:20;3.88;;;2.63;;
12635;SDS011;6383;50.830;7.210;2023-03-18T08:54:49;3.33;;;2.55;;
12635;SDS011;6383;50.830;7.210;2023-03-18T08:57:18;7.38;;;3.13;;
12635;SDS011;6383;50.830;7.210;2023-03-18T08:59:46;8.15;;;3.47;;
12635;SDS011;6383;50.830;7.210;2023-03-18T09:02:16;5.32;;;2.63;;
12635;SDS011;6383;50.830;7.210;2023-03-18T09:04:44;5.35;;;3.55;;
12635;SDS011;6383;50.830;7.210;2023-03-18T09:07:14;4.13;;;2.50;;
12635;SDS011;6383;50.830;7.210;2023-03-18T09:09:44;3.40;;;2.95;;
12635;SDS011;6383;50.830;7.210;2023-03-18T09:12:13;3.55;;;2.17;;
12635;SDS011;6383;50.830;7.210;2023-03-18T09:14:40;6.00;;;2.80;;
12635;SDS011;6383;50.830;7.210;2023-03-18T09:17:08;3.63;;;2.40;;
12635;SDS011;6383;50.830;7.210;2023-03-18T09:19:37;3.10;;;2.60;;
12635;SDS011;6383;50.830;7.210;2023-03-18T09:22:04;5.68;;;2.67;;
12635;SDS011;6383;50.830;7.210;2023-03-18T09:24:31;6.65;;;2.13;;
12635;SDS011;6383;50.830;7.210;2023-03-18T09:27:01;3.72;;;2.20;;
12635;SDS011;6383;50.830;7.210;2023-03-18T09:29:30;10.18;;;3.35;;
12635;SDS011;6383;50.830;7.210;2023-03-18T09:31:58;3.95;;;2.53;;
12635;SDS011;6383;50.830;7.210;2023-03-18T09:34:27;7.10;;;2.45;;
12635;SDS011;6383;50.830;7.210;2023-03-18T09:36:57;5.43;;;2.53;;
12635;SDS011;6383;50.830;7.210;2023-03-18T09:39:26;5.72;;;2.60;;
12635;SDS011;6383;50.830;7.210;2023-03-18T09:42:00;3.40;;;1.98;;
12635;SDS011;6383;50.830;7.210;2023-03-18T09:44:36;4.47;;;2.33;;
12635;SDS011;6383;50.830;7.210;2023-03-18T09:47:10;3.47;;;2.55;;
12635;SDS011;6383;50.830;7.210;2023-03-18T09:49:52;4.80;;;2.22;;
12635;SDS011;6383;50.830;7.210;2023-03-18T09:52:34;2.72;;;2.03;;
12635;SDS011;6383;50.830;7.210;2023-03-18T09:55:08;6.30;;;2.00;;
12635;SDS011;6383;50.830;7.210;2023-03-18T09:57:45;3.95;;;1.90;;
12635;SDS011;6383;50.830;7.210;2023-03-18T10:00:18;5.90;;;2.13;;
12635;SDS011;6383;50.830;7.210;2023-03-18T10:03:03;5.60;;;2.65;;
12635;SDS011;6383;50.830;7.210;2023-03-18T10:05:38;3.85;;;1.73;;
12635;SDS011;6383;50.830;7.210;2023-03-18T10:08:15;3.78;;;1.83;;
12635;SDS011;6383;50.830;7.210;2023-03-18T10:10:46;3.88;;;2.42;;
12635;SDS011;6383;50.830;7.210;2023-03-18T10:13:18;3.75;;;1.98;;
12635;SDS011;6383;50.830;7.210;2023-03-18T10:15:54;6.18;;;1.83;;
12635;SDS011;6383;50.830;7.210;2023-03-18T10:18:24;4.70;;;1.90;;
12635;SDS011;6383;50.830;7.210;2023-03-18T10:21:01;4.15;;;1.67;;
12635;SDS011;6383;50.830;7.210;2023-03-18T10:23:48;4.90;;;1.75;;
12635;SDS011;6383;50.830;7.210;2023-03-18T10:26:22;4.63;;;2.22;;
12635;SDS011;6383;50.830;7.210;2023-03-18T10:29:11;5.97;;;1.73;;
12635;SDS011;6383;50.830;7.210;2023-03-18T10:31:53;3.58;;;1.50;;
12635;SDS011;6383;50.830;7.210;2023-03-18T10:34:32;3.00;;;1.45;;
12635;SDS011;6383;50.830;7.210;2023-03-18T10:37:16;1.83;;;1.30;;
12635;SDS011;6383;50.830;7.210;2023-03-18T10:39:51;3.65;;;1.80;;
12635;SDS011;6383;50.830;7.210;2023-03-18T10:42:21;2.55;;;1.33;;
12635;SDS011;6383;50.830;7.210;2023-03-18T10:44:51;2.22;;;1.50;;
12635;SDS011;6383;50.830;7.210;2023-03-18T10:47:24;3.47;;;1.48;;
12635;SDS011;6383;50.830;7.210;2023-03-18T10:49:59;1.50;;;1.30;;
12635;SDS011;6383;50.830;7.210;2023-03-18T10:52:33;5.50;;;1.83;;
12635;SDS011;6383;50.830;7.210;2023-03-18T10:55:10;3.22;;;1.40;;
12635;SDS011;6383;50.830;7.210;2023-03-18T10:57:41;6.80;;;1.70;;
12635;SDS011;6383;50.830;7.210;2023-03-18T11:02:52;2.17;;;1.50;;
12635;SDS011;6383;50.830;7.210;2023-03-18T11:05:24;4.22;;;1.35;;
12635;SDS011;6383;50.830;7.210;2023-03-18T11:07:54;1.95;;;1.50;;
12635;SDS011;6383;50.830;7.210;2023-03-18T11:10:28;4.75;;;1.63;;
12635;SDS011;6383;50.830;7.210;2023-03-18T11:13:00;7.60;;;1.80;;
12635;SDS011;6383;50.830;7.210;2023-03-18T11:15:29;3.03;;;1.80;;
12635;SDS011;6383;50.830;7.210;2023-03-18T11:18:02;2.65;;;1.65;;
12635;SDS011;6383;50.830;7.210;2023-03-18T11:25:47;6.35;;;2.10;;
12635;SDS011;6383;50.830;7.210;2023-03-18T11:28:18;4.97;;;2.10;;
12635;SDS011;6383;50.830;7.210;2023-03-18T11:30:51;2.17;;;1.70;;
12635;SDS011;6383;50.830;7.210;2023-03-18T11:33:24;2.27;;;1.70;;
12635;SDS011;6383;50.830;7.210;2023-03-18T11:35:57;2.35;;;1.40;;
12635;SDS011;6383;50.830;7.210;2023-03-18T11:38:29;3.25;;;1.40;;
12635;SDS011;6383;50.830;7.210;2023-03-18T11:41:07;3.90;;;1.30;;
12635;SDS011;6383;50.830;7.210;2023-03-18T11:43:39;2.05;;;1.27;;
12635;SDS011;6383;50.830;7.210;2023-03-18T11:46:21;1.05;;;0.95;;
12635;SDS011;6383;50.830;7.210;2023-03-18T11:48:53;1.55;;;1.30;;
12635;SDS011;6383;50.830;7.210;2023-03-18T11:51:27;4.65;;;1.85;;
12635;SDS011;6383;50.830;7.210;2023-03-18T11:54:18;2.60;;;1.40;;
12635;SDS011;6383;50.830;7.210;2023-03-18T11:57:03;3.08;;;1.10;;
12635;SDS011;6383;50.830;7.210;2023-03-18T11:59:48;5.07;;;1.50;;
12635;SDS011;6383;50.830;7.210;2023-03-18T12:02:29;5.10;;;1.52;;
12635;SDS011;6383;50.830;7.210;2023-03-18T12:05:15;3.77;;;2.30;;
12635;SDS011;6383;50.830;7.210;2023-03-18T12:07:58;1.90;;;1.40;;
12635;SDS011;6383;50.830;7.210;2023-03-18T12:10:33;5.35;;;1.85;;
12635;SDS011;6383;50.830;7.210;2023-03-18T12:13:14;1.65;;;1.25;;
12635;SDS011;6383;50.830;7.210;2023-03-18T12:15:56;2.33;;;1.40;;
12635;SDS011;6383;50.830;7.210;2023-03-18T12:18:35;3.30;;;1.75;;
12635;SDS011;6383;50.830;7.210;2023-03-18T12:24:17;1.85;;;1.10;;
12635;SDS011;6383;50.830;7.210;2023-03-18T12:27:07;2.55;;;1.23;;
12635;SDS011;6383;50.830;7.210;2023-03-18T12:29:57;2.25;;;1.10;;
12635;SDS011;6383;50.830;7.210;2023-03-18T12:32:35;3.45;;;1.60;;
12635;SDS011;6383;50.830;7.210;2023-03-18T12:35:18;6.43;;;1.23;;
12635;SDS011;6383;50.830;7.210;2023-03-18T12:38:07;3.45;;;1.50;;
12635;SDS011;6383;50.830;7.210;2023-03-18T12:40:49;2.63;;;1.00;;
12635;SDS011;6383;50.830;7.210;2023-03-18T12:43:38;3.97;;;1.60;;
12635;SDS011;6383;50.830;7.210;2023-03-18T12:46:15;2.00;;;1.17;;
12635;SDS011;6383;50.830;7.210;2023-03-18T12:48:50;2.25;;;1.33;;
12635;SDS011;6383;50.830;7.210;2023-03-18T12:51:22;2.10;;;1.23;;
12635;SDS011;6383;50.830;7.210;2023-03-18T12:53:55;2.38;;;1.85;;
12635;SDS011;6383;50.830;7.210;2023-03-18T12:56:30;3.75;;;1.70;;
12635;SDS011;6383;50.830;7.210;2023-03-18T12:59:11;3.45;;;1.60;;
12635;SDS011;6383;50.830;7.210;2023-03-18T13:01:49;1.75;;;1.20;;
12635;SDS011;6383;50.830;7.210;2023-03-18T13:04:30;3.15;;;1.10;;
12635;SDS011;6383;50.830;7.210;2023-03-18T13:07:02;5.88;;;1.38;;
12635;SDS011;6383;50.830;7.210;2023-03-18T13:09:41;4.18;;;1.17;;
12635;SDS011;6383;50.830;7.210;2023-03-18T13:12:13;5.95;;;1.67;;
12635;SDS011;6383;50.830;7.210;2023-03-18T13:14:50;2.83;;;1.25;;
12635;SDS011;6383;50.830;7.210;2023-03-18T13:17:27;2.20;;;1.42;;
12635;SDS011;6383;50.830;7.210;2023-03-18T13:20:00;3.22;;;1.20;;
12635;SDS011;6383;50.830;7.210;2023-03-18T13:25:27;3.85;;;1.27;;
12635;SDS011;6383;50.830;7.210;2023-03-18T13:28:06;4.75;;;1.67;;
12635;SDS011;6383;50.830;7.210;2023-03-18T13:30:53;4.93;;;1.33;;
12635;SDS011;6383;50.830;7.210;2023-03-18T13:39:58;1.73;;;1.40;;
12635;SDS011;6383;50.830;7.210;2023-03-18T13:42:40;4.03;;;1.75;;
12635;SDS011;6383;50.830;7.210;2023-03-18T13:45:13;5.95;;;1.50;;
12635;SDS011;6383;50.830;7.210;2023-03-18T13:47:53;4.18;;;1.70;;
12635;SDS011;6383;50.830;7.210;2023-03-18T13:50:29;4.82;;;1.67;;
12635;SDS011;6383;50.830;7.210;2023-03-18T13:53:02;3.78;;;1.33;;
12635;SDS011;6383;50.830;7.210;2023-03-18T13:55:33;5.72;;;1.55;;
12635;SDS011;6383;50.830;7.210;2023-03-18T13:58:19;3.92;;;1.58;;
12635;SDS011;6383;50.830;7.210;2023-03-18T14:03:59;5.97;;;1.58;;
12635;SDS011;6383;50.830;7.210;2023-03-18T14:07:10;5.20;;;1.60;;
12635;SDS011;6383;50.830;7.210;2023-03-18T14:09:49;3.70;;;1.63;;
12635;SDS011;6383;50.830;7.210;2023-03-18T14:12:40;6.40;;;2.20;;
12635;SDS011;6383;50.830;7.210;2023-03-18T14:18:21;7.25;;;2.03;;
12635;SDS011;6383;50.830;7.210;2023-03-18T14:20:53;5.63;;;1.80;;
12635;SDS011;6383;50.830;7.210;2023-03-18T14:23:31;7.75;;;2.33;;
12635;SDS011;6383;50.830;7.210;2023-03-18T14:26:03;8.95;;;2.28;;
12635;SDS011;6383;50.830;7.210;2023-03-18T14:28:44;5.00;;;2.38;;
12635;SDS011;6383;50.830;7.210;2023-03-18T14:31:19;7.10;;;1.85;;
12635;SDS011;6383;50.830;7.210;2023-03-18T14:39:55;9.25;;;2.40;;
12635;SDS011;6383;50.830;7.210;2023-03-18T14:42:39;6.30;;;2.45;;
12635;SDS011;6383;50.830;7.210;2023-03-18T14:45:18;7.88;;;1.70;;
12635;SDS011;6383;50.830;7.210;2023-03-18T14:47:52;4.72;;;1.63;;
12635;SDS011;6383;50.830;7.210;2023-03-18T14:50:31;2.80;;;2.15;;
12635;SDS011;6383;50.830;7.210;2023-03-18T14:53:08;4.03;;;2.72;;
12635;SDS011;6383;50.830;7.210;2023-03-18T14:55:41;3.20;;;1.90;;
12635;SDS011;6383;50.830;7.210;2023-03-18T14:58:13;3.63;;;1.50;;
12635;SDS011;6383;50.830;7.210;2023-03-18T15:00:45;5.53;;;1.83;;
12635;SDS011;6383;50.830;7.210;2023-03-18T15:03:15;3.53;;;1.60;;
12635;SDS011;6383;50.830;7.210;2023-03-18T15:05:47;9.18;;;1.77;;
12635;SDS011;6383;50.830;7.210;2023-03-18T15:08:16;4.38;;;1.67;;
12635;SDS011;6383;50.830;7.210;2023-03-18T15:10:47;2.45;;;1.83;;
12635;SDS011;6383;50.830;7.210;2023-03-18T15:13:19;5.22;;;1.60;;
12635;SDS011;6383;50.830;7.210;2023-03-18T15:15:51;5.93;;;2.03;;
12635;SDS011;6383;50.830;7.210;2023-03-18T15:18:23;5.70;;;1.67;;
12635;SDS011;6383;50.830;7.210;2023-03-18T15:20:54;5.32;;;1.48;;
12635;SDS011;6383;50.830;7.210;2023-03-18T15:23:28;9.85;;;1.63;;
12635;SDS011;6383;50.830;7.210;2023-03-18T15:26:00;6.60;;;1.65;;
12635;SDS011;6383;50.830;7.210;2023-03-18T15:28:30;2.80;;;1.25;;
12635;SDS011;6383;50.830;7.210;2023-03-18T15:31:01;5.93;;;1.88;;
12635;SDS011;6383;50.830;7.210;2023-03-18T15:33:33;3.40;;;1.65;;
12635;SDS011;6383;50.830;7.210;2023-03-18T15:36:04;6.18;;;1.52;;
12635;SDS011;6383;50.830;7.210;2023-03-18T15:38:44;2.72;;;1.25;;
12635;SDS011;6383;50.830;7.210;2023-03-18T15:41:14;3.20;;;1.50;;
12635;SDS011;6383;50.830;7.210;2023-03-18T15:43:48;6.78;;;1.45;;
12635;SDS011;6383;50.830;7.210;2023-03-18T15:46:23;4.53;;;1.95;;
12635;SDS011;6383;50.830;7.210;2023-03-18T15:48:59;6.93;;;1.95;;
12635;SDS011;6383;50.830;7.210;2023-03-18T15:51:32;3.28;;;1.60;;
12635;SDS011;6383;50.830;7.210;2023-03-18T15:54:11;3.40;;;1.57;;
12635;SDS011;6383;50.830;7.210;2023-03-18T15:56:46;3.63;;;1.45;;
12635;SDS011;6383;50.830;7.210;2023-03-18T15:59:17;5.80;;;1.73;;